createdAt,value
2022-08-04T00:01:10.357Z,30.91
2022-08-04T00:03:50.260Z,31.17
2022-08-04T00:06:32.015Z,31.11
2022-08-04T00:09:09.089Z,31.19
2022-08-04T00:11:45.903Z,30.98
2022-08-04T00:14:17.088Z,31.21
2022-08-04T00:16:49.343Z,31.30
2022-08-04T00:19:26.137Z,31.35
2022-08-04T00:22:04.016Z,31.65
2022-08-04T00:24:34.060Z,31.57
2022-08-04T00:27:03.973Z,31.16
2022-08-04T00:29:33.550Z,31.58
2022-08-04T00:32:04.885Z,31.82
2022-08-04T00:34:37.305Z,31.79
2022-08-04T00:37:07.622Z,31.76
2022-08-04T00:39:36.119Z,31.74
2022-08-04T00:42:36.249Z,31.56
2022-08-04T00:46:15.155Z,31.58
2022-08-04T00:49:23.571Z,31.61
2022-08-04T00:52:33.177Z,31.42
2022-08-04T00:55:09.979Z,32.08
2022-08-04T00:58:04.451Z,31.89
2022-08-04T01:00:45.164Z,31.69
2022-08-04T01:03:25.065Z,31.81
2022-08-04T01:06:10.731Z,32.37
2022-08-04T01:08:56.461Z,32.27
2022-08-04T01:11:56.665Z,32.11
2022-08-04T01:14:48.673Z,32.52
2022-08-04T01:17:25.664Z,32.33
2022-08-04T01:20:03.386Z,32.23
2022-08-04T01:23:27.711Z,32.54
2022-08-04T01:26:57.956Z,32.62
2022-08-04T01:29:46.375Z,32.67
2022-08-04T01:32:25.835Z,32.78
2022-08-04T01:35:02.334Z,32.87
2022-08-04T01:37:49.012Z,32.41
2022-08-04T01:40:18.403Z,32.62
2022-08-04T01:42:50.562Z,32.92
2022-08-04T01:45:20.489Z,33.19
2022-08-04T01:47:52.952Z,32.78
2022-08-04T01:50:22.709Z,32.99
2022-08-04T01:52:56.389Z,33.14
2022-08-04T01:55:54.582Z,33.22
2022-08-04T01:58:19.075Z,33.12
2022-08-04T02:00:59.915Z,33.37
2022-08-04T02:04:22.097Z,33.16
2022-08-04T02:06:32.611Z,33.41
2022-08-04T02:09:13.454Z,33.54
2022-08-04T02:11:46.728Z,33.16
2022-08-04T02:14:40.179Z,33.50
2022-08-04T02:17:13.941Z,33.52
2022-08-04T02:20:08.635Z,33.21
2022-08-04T02:22:48.059Z,33.43
2022-08-04T02:25:25.418Z,33.16
2022-08-04T02:28:27.813Z,33.46
2022-08-04T02:31:13.750Z,33.50
2022-08-04T02:33:46.097Z,33.14
2022-08-04T02:36:23.060Z,32.98
2022-08-04T02:38:58.143Z,33.16
2022-08-04T02:41:28.354Z,33.10
2022-08-04T02:44:00.712Z,33.14
2022-08-04T02:46:30.660Z,33.37
2022-08-04T02:49:02.835Z,33.28
2022-08-04T02:51:34.495Z,33.83
2022-08-04T02:54:07.286Z,33.71
2022-08-04T02:56:39.243Z,33.67
2022-08-04T02:59:09.918Z,33.95
2022-08-04T03:01:57.626Z,33.80
2022-08-04T03:04:52.447Z,34.29
2022-08-04T03:07:56.607Z,33.87
2022-08-04T03:11:15.353Z,33.87
2022-08-04T03:14:26.971Z,34.21
2022-08-04T03:17:58.380Z,34.10
2022-08-04T03:24:43.381Z,34.13
2022-08-04T03:27:42.878Z,34.48
2022-08-04T03:30:16.123Z,34.57
2022-08-04T03:33:36.604Z,34.59
2022-08-04T03:37:12.914Z,34.33
2022-08-04T03:40:30.246Z,34.46
2022-08-04T03:44:02.402Z,34.55
2022-08-04T03:47:13.257Z,34.39
2022-08-04T03:50:26.309Z,34.69
2022-08-04T03:53:21.303Z,34.72
2022-08-04T03:56:31.114Z,34.75
2022-08-04T03:59:41.653Z,34.95
2022-08-04T04:02:55.350Z,34.87
2022-08-04T04:06:02.149Z,35.01
2022-08-04T04:09:01.931Z,35.20
2022-08-04T04:12:12.495Z,35.09
2022-08-04T04:14:57.120Z,34.95
2022-08-04T04:18:16.290Z,35.26
2022-08-04T04:21:26.531Z,35.15
2022-08-04T04:24:33.960Z,35.32
2022-08-04T04:27:19.124Z,35.23
2022-08-04T04:30:04.128Z,35.22
2022-08-04T04:32:52.301Z,35.15
2022-08-04T04:35:34.031Z,35.17
2022-08-04T04:38:30.284Z,35.32
2022-08-04T04:41:22.619Z,35.14
2022-08-04T04:44:40.682Z,35.30
2022-08-04T04:47:43.293Z,35.10
2022-08-04T04:50:15.972Z,34.94
2022-08-04T04:52:50.763Z,34.91
2022-08-04T04:55:26.772Z,35.14
2022-08-04T04:58:00.977Z,35.12
2022-08-04T05:00:50.866Z,34.90
2022-08-04T05:03:46.993Z,35.04
2022-08-04T05:06:35.998Z,34.90
2022-08-04T05:09:28.828Z,34.57
2022-08-04T05:14:31.812Z,34.21
2022-08-04T05:15:18.574Z,34.16
2022-08-04T05:17:55.308Z,33.50
2022-08-04T05:20:27.946Z,33.69
2022-08-04T05:23:03.013Z,33.27
2022-08-04T05:25:38.545Z,33.08
2022-08-04T05:28:11.856Z,33.00
2022-08-04T05:30:48.650Z,33.50
2022-08-04T05:33:29.077Z,33.02
2022-08-04T05:36:19.076Z,33.21
2022-08-04T05:38:54.900Z,32.85
2022-08-04T05:41:24.115Z,32.77
2022-08-04T05:44:02.111Z,33.00
2022-08-04T05:46:32.043Z,32.99
2022-08-04T05:49:02.908Z,33.04
2022-08-04T05:51:33.130Z,32.62
2022-08-04T05:54:03.846Z,33.05
2022-08-04T05:56:34.859Z,33.03
2022-08-04T05:59:05.840Z,32.28
2022-08-04T06:01:56.242Z,32.60
2022-08-04T06:04:32.691Z,32.42
2022-08-04T06:07:01.252Z,32.38
2022-08-04T06:09:29.840Z,32.06
2022-08-04T06:12:03.913Z,32.24
2022-08-04T06:14:39.392Z,32.01
2022-08-04T06:18:32.425Z,31.79
2022-08-04T06:20:17.826Z,31.64
2022-08-04T06:22:54.979Z,31.49
2022-08-04T06:25:27.676Z,31.76
2022-08-04T06:27:57.592Z,31.54
2022-08-04T06:30:28.251Z,31.01
2022-08-04T06:33:04.260Z,30.81
2022-08-04T06:35:35.554Z,30.36
2022-08-04T06:38:04.928Z,30.31
2022-08-04T06:40:34.847Z,29.94
2022-08-04T06:43:05.918Z,29.86
2022-08-04T06:45:38.142Z,29.58
2022-08-04T06:48:08.286Z,29.46
2022-08-04T06:51:32.925Z,28.67
2022-08-04T06:53:28.224Z,28.73
2022-08-04T06:55:58.565Z,28.35
2022-08-04T06:58:28.380Z,28.33
2022-08-04T07:01:02.106Z,28.09
2022-08-04T07:03:32.231Z,27.95
2022-08-04T07:06:06.338Z,27.40
2022-08-04T07:08:43.447Z,27.33
2022-08-04T07:11:12.981Z,26.79
2022-08-04T07:13:45.252Z,26.80
2022-08-04T07:16:15.811Z,26.37
2022-08-04T07:18:44.509Z,26.33
2022-08-04T07:21:23.054Z,26.39
2022-08-04T07:23:51.773Z,26.54
2022-08-04T07:26:20.316Z,26.17
2022-08-04T07:28:48.805Z,25.88
2022-08-04T07:31:33.382Z,25.89
2022-08-04T07:34:17.743Z,25.66
2022-08-04T07:36:55.180Z,25.83
2022-08-04T07:39:29.651Z,25.36
2022-08-04T07:42:02.163Z,25.24
2022-08-04T07:44:32.369Z,25.44
2022-08-04T07:47:02.004Z,25.08
2022-08-04T07:49:57.363Z,25.33
2022-08-04T07:52:21.919Z,24.96
2022-08-04T07:54:51.686Z,24.72
2022-08-04T07:57:41.186Z,24.49
2022-08-04T08:00:14.718Z,24.78
2022-08-04T08:02:43.522Z,24.45
2022-08-04T08:05:19.303Z,24.75
2022-08-04T08:07:54.426Z,24.00
2022-08-04T08:10:24.330Z,24.49
2022-08-04T08:12:54.500Z,24.39
2022-08-04T08:15:23.654Z,24.17
2022-08-04T08:17:58.192Z,23.93
2022-08-04T08:20:29.466Z,23.95
2022-08-04T08:23:02.083Z,23.67
2022-08-04T08:25:33.268Z,23.70
2022-08-04T08:28:03.804Z,24.27
2022-08-04T08:30:33.373Z,24.19
2022-08-04T08:33:08.981Z,23.79
2022-08-04T08:35:53.997Z,23.44
2022-08-04T08:38:44.177Z,23.53
2022-08-04T08:41:58.383Z,24.06
2022-08-04T08:45:10.854Z,23.57
2022-08-04T08:48:30.137Z,23.98
2022-08-04T08:51:42.647Z,23.45
2022-08-04T08:54:48.640Z,23.46
2022-08-04T08:57:59.400Z,23.63
2022-08-04T09:00:42.762Z,23.60
2022-08-04T09:03:47.572Z,23.52
2022-08-04T09:06:40.951Z,23.50
2022-08-04T09:09:41.348Z,23.67
2022-08-04T09:12:25.830Z,22.98
2022-08-04T09:15:01.737Z,23.34
2022-08-04T09:17:44.298Z,23.15
2022-08-04T09:20:24.050Z,22.99
2022-08-04T09:23:01.934Z,23.18
2022-08-04T09:25:39.166Z,22.92
2022-08-04T09:28:43.748Z,22.69
2022-08-04T09:31:15.224Z,22.79
2022-08-04T09:33:57.451Z,22.93
2022-08-04T09:36:40.613Z,22.82
2022-08-04T09:39:23.926Z,22.40
2022-08-04T09:42:05.048Z,22.60
2022-08-04T09:44:58.776Z,22.80
2022-08-04T09:47:41.106Z,22.47
2022-08-04T09:50:33.509Z,22.23
2022-08-04T09:53:18.012Z,21.93
2022-08-04T09:56:03.027Z,21.87
2022-08-04T09:58:53.802Z,21.87
2022-08-04T10:01:27.544Z,21.14
2022-08-04T10:04:01.787Z,21.14
2022-08-04T10:07:03.998Z,21.19
2022-08-04T10:09:59.774Z,21.27
2022-08-04T10:12:58.363Z,21.29
2022-08-04T10:15:35.572Z,20.63
2022-08-04T10:18:24.366Z,20.21
2022-08-04T10:21:14.861Z,20.01
2022-08-04T10:24:02.335Z,20.05
2022-08-04T10:26:38.145Z,19.82
2022-08-04T10:29:13.952Z,19.69
2022-08-04T10:31:49.574Z,19.43
2022-08-04T10:34:26.097Z,19.39
2022-08-04T10:37:03.662Z,19.34
2022-08-04T10:40:05.373Z,19.56
2022-08-04T10:42:45.411Z,19.48
2022-08-04T10:45:20.544Z,19.38
2022-08-04T10:48:01.431Z,19.43
2022-08-04T10:50:31.776Z,19.31
2022-08-04T10:53:09.558Z,19.05
2022-08-04T10:56:07.922Z,18.71
2022-08-04T10:58:48.718Z,18.70
2022-08-04T11:01:59.694Z,18.36
2022-08-04T11:04:29.247Z,17.90
2022-08-04T11:07:01.483Z,17.36
2022-08-04T11:09:31.900Z,16.84
2022-08-04T11:12:08.252Z,16.28
2022-08-04T11:14:45.394Z,16.02
2022-08-04T11:17:22.396Z,16.00
2022-08-04T11:20:32.134Z,15.50
2022-08-04T11:23:04.206Z,15.23
2022-08-04T11:25:41.410Z,15.02
2022-08-04T11:28:19.709Z,14.36
2022-08-04T11:30:57.027Z,13.64
2022-08-04T11:33:42.473Z,13.89
2022-08-04T11:36:22.096Z,13.67
2022-08-04T11:39:07.616Z,12.91
2022-08-04T11:41:49.387Z,13.17
2022-08-04T11:44:28.083Z,13.03
2022-08-04T11:47:03.643Z,12.81
2022-08-04T11:49:57.041Z,11.91
2022-08-04T11:52:29.986Z,11.84
2022-08-04T11:55:00.838Z,11.27
2022-08-04T11:57:36.278Z,11.09
2022-08-04T12:00:14.025Z,11.27
2022-08-04T12:03:14.235Z,11.11
2022-08-04T12:05:53.951Z,10.88
2022-08-04T12:08:42.233Z,9.96
2022-08-04T12:11:23.104Z,10.09
2022-08-04T12:14:02.828Z,9.52
2022-08-04T12:16:43.429Z,9.66
2022-08-04T12:19:21.515Z,9.59
2022-08-04T12:22:00.093Z,9.06
2022-08-04T12:24:35.638Z,8.95
2022-08-04T12:27:15.303Z,8.96
2022-08-04T12:29:43.890Z,9.03
2022-08-04T12:32:39.565Z,9.06
2022-08-04T12:35:22.568Z,8.89
2022-08-04T12:37:59.521Z,8.73
2022-08-04T12:40:34.285Z,8.08
2022-08-04T12:43:12.571Z,7.89
2022-08-04T12:45:48.593Z,7.78
2022-08-04T12:48:21.611Z,7.61
2022-08-04T12:50:52.841Z,7.34
2022-08-04T12:53:32.156Z,7.15
2022-08-04T12:56:02.827Z,7.13
2022-08-04T12:58:42.269Z,7.28
2022-08-04T13:02:08.981Z,7.11
2022-08-04T13:04:12.979Z,6.24
2022-08-04T13:06:42.597Z,6.29
2022-08-04T13:09:18.508Z,6.62
2022-08-04T13:11:55.182Z,6.37
2022-08-04T13:14:27.619Z,6.32
2022-08-04T13:17:00.453Z,6.58
2022-08-04T13:19:30.972Z,6.29
2022-08-04T13:22:02.681Z,5.75
2022-08-04T13:24:41.660Z,5.69
2022-08-04T13:27:25.061Z,5.91
2022-08-04T13:30:03.759Z,5.45
2022-08-04T13:32:34.972Z,5.58
2022-08-04T13:35:06.009Z,5.37
2022-08-04T13:37:38.990Z,5.66
2022-08-04T13:40:13.070Z,5.59
2022-08-04T13:42:42.896Z,5.25
2022-08-04T13:45:14.605Z,5.39
2022-08-04T13:47:44.608Z,4.96
2022-08-04T13:50:20.663Z,5.49
2022-08-04T13:52:52.298Z,5.13
2022-08-04T13:55:28.081Z,5.04
2022-08-04T13:58:06.571Z,5.21
2022-08-04T14:00:47.956Z,4.60
2022-08-04T14:03:27.271Z,4.45
2022-08-04T14:06:17.124Z,4.61
2022-08-04T14:08:53.292Z,4.35
2022-08-04T14:12:06.386Z,4.78
2022-08-04T14:14:24.859Z,4.67
2022-08-04T14:17:00.848Z,4.40
2022-08-04T14:19:36.188Z,4.54
2022-08-04T14:22:05.725Z,4.36
2022-08-04T14:24:34.453Z,4.15
2022-08-04T14:27:02.967Z,4.33
2022-08-04T14:29:41.896Z,4.42
2022-08-04T14:32:14.778Z,4.45
2022-08-04T14:34:46.797Z,4.04
2022-08-04T14:37:20.679Z,4.72
2022-08-04T14:40:09.693Z,4.38
2022-08-04T14:42:42.679Z,4.95
2022-08-04T14:45:12.288Z,4.26
2022-08-04T14:47:52.717Z,4.86
2022-08-04T14:50:22.938Z,4.89
2022-08-04T14:52:51.353Z,4.57
2022-08-04T14:55:25.285Z,4.33
2022-08-04T14:58:35.899Z,4.23
2022-08-04T15:00:42.680Z,4.76
2022-08-04T15:03:12.893Z,4.56
2022-08-04T15:05:55.472Z,4.04
2022-08-04T15:08:32.509Z,4.48
2022-08-04T15:11:03.534Z,3.90
2022-08-04T15:13:33.470Z,4.03
2022-08-04T15:16:07.872Z,4.19
2022-08-04T15:18:42.049Z,4.83
2022-08-04T15:21:11.877Z,4.70
2022-08-04T15:23:40.392Z,4.02
2022-08-04T15:26:14.486Z,4.16
2022-08-04T15:28:48.359Z,4.09
2022-08-04T15:32:06.580Z,4.03
2022-08-04T15:34:09.655Z,4.60
2022-08-04T15:36:57.132Z,4.24
2022-08-04T15:39:39.471Z,4.28
2022-08-04T15:42:21.043Z,4.87
2022-08-04T15:45:23.811Z,5.63
2022-08-04T15:48:33.655Z,6.09
2022-08-04T15:51:15.370Z,6.38
2022-08-04T15:54:30.621Z,7.05
2022-08-04T15:57:03.534Z,7.60
2022-08-04T16:00:14.715Z,7.81
2022-08-04T16:02:44.732Z,7.96
2022-08-04T16:05:39.421Z,9.09
2022-08-04T16:08:19.185Z,8.91
2022-08-04T16:10:51.655Z,9.39
2022-08-04T16:13:22.948Z,9.95
2022-08-04T16:16:03.301Z,10.28
2022-08-04T16:18:44.656Z,10.51
2022-08-04T16:21:24.005Z,10.79
2022-08-04T16:24:17.727Z,11.07
2022-08-04T16:26:57.370Z,11.56
2022-08-04T16:29:40.351Z,11.65
2022-08-04T16:32:15.664Z,11.82
2022-08-04T16:34:55.238Z,12.00
2022-08-04T16:37:31.382Z,12.44
2022-08-04T16:40:46.847Z,12.27
2022-08-04T16:43:17.231Z,12.31
2022-08-04T16:45:49.030Z,13.02
2022-08-04T16:48:20.613Z,13.07
2022-08-04T16:51:03.168Z,12.59
2022-08-04T16:54:04.376Z,13.06
2022-08-04T16:56:35.308Z,12.93
2022-08-04T16:59:10.091Z,13.34
2022-08-04T17:01:39.831Z,12.80
2022-08-04T17:04:08.325Z,12.98
2022-08-04T17:06:39.370Z,13.31
2022-08-04T17:09:11.418Z,13.69
2022-08-04T17:11:42.364Z,13.51
2022-08-04T17:14:11.503Z,13.65
2022-08-04T17:16:42.952Z,13.79
2022-08-04T17:19:23.667Z,13.71
2022-08-04T17:22:03.049Z,13.78
2022-08-04T17:24:35.303Z,13.85
2022-08-04T17:28:08.888Z,14.07
2022-08-04T17:29:55.685Z,13.87
2022-08-04T17:32:25.156Z,13.98
2022-08-04T17:34:57.405Z,13.66
2022-08-04T17:37:38.071Z,13.78
2022-08-04T17:40:13.049Z,13.76
2022-08-04T17:42:45.369Z,13.94
2022-08-04T17:48:24.533Z,14.24
2022-08-04T17:50:53.866Z,14.22
2022-08-04T17:54:01.221Z,14.37
2022-08-04T17:59:55.517Z,14.36
2022-08-04T18:02:32.346Z,14.46
2022-08-04T18:05:07.391Z,15.12
2022-08-04T18:08:45.999Z,15.12
2022-08-04T18:10:52.651Z,15.14
2022-08-04T18:13:26.442Z,15.47
2022-08-04T18:16:04.989Z,15.77
2022-08-04T18:18:35.000Z,15.34
2022-08-04T18:21:07.652Z,16.11
2022-08-04T18:23:43.496Z,16.19
2022-08-04T18:26:23.547Z,16.65
2022-08-04T18:28:52.706Z,16.43
2022-08-04T18:31:22.958Z,16.68
2022-08-04T18:33:57.351Z,16.71
2022-08-04T18:36:34.313Z,17.16
2022-08-04T18:39:12.751Z,16.65
2022-08-04T18:42:00.994Z,17.05
2022-08-04T18:44:31.711Z,16.72
2022-08-04T18:47:22.450Z,17.31
2022-08-04T18:50:59.728Z,17.23
2022-08-04T18:52:45.237Z,17.42
2022-08-04T18:55:55.493Z,17.79
2022-08-04T18:58:07.378Z,17.60
2022-08-04T19:00:45.745Z,17.83
2022-08-04T19:03:22.810Z,17.92
2022-08-04T19:05:52.352Z,18.12
2022-08-04T19:08:32.926Z,17.78
2022-08-04T19:11:35.325Z,18.18
2022-08-04T19:13:58.148Z,18.53
2022-08-04T19:16:28.849Z,18.15
2022-08-04T19:18:58.793Z,18.38
2022-08-04T19:21:59.801Z,18.62
2022-08-04T19:24:31.785Z,18.84
2022-08-04T19:27:07.219Z,18.55
2022-08-04T19:29:41.166Z,18.48
2022-08-04T19:32:14.388Z,19.02
2022-08-04T19:34:47.568Z,19.22
2022-08-04T19:37:56.829Z,19.24
2022-08-04T19:40:10.584Z,19.13
2022-08-04T19:45:42.019Z,19.38
2022-08-04T19:48:18.967Z,19.27
2022-08-04T19:50:51.697Z,19.87
2022-08-04T19:53:36.070Z,19.87
2022-08-04T19:56:07.196Z,19.63
2022-08-04T19:58:36.019Z,20.19
2022-08-04T20:01:04.716Z,19.89
2022-08-04T20:04:10.234Z,19.88
2022-08-04T20:06:41.113Z,20.43
2022-08-04T20:09:25.569Z,20.59
2022-08-04T20:11:56.722Z,20.19
2022-08-04T20:17:15.658Z,20.82
2022-08-04T20:19:51.226Z,20.94
2022-08-04T20:22:51.608Z,21.04
2022-08-04T20:25:27.317Z,21.19
2022-08-04T20:28:01.164Z,21.42
2022-08-04T20:30:30.627Z,21.37
2022-08-04T20:33:01.044Z,21.46
2022-08-04T20:35:30.379Z,21.72
2022-08-04T20:38:01.683Z,21.60
2022-08-04T20:40:30.657Z,22.00
2022-08-04T20:42:59.864Z,21.83
2022-08-04T20:45:55.608Z,21.80
2022-08-04T20:48:17.215Z,21.82
2022-08-04T20:50:47.228Z,22.12
2022-08-04T20:53:17.898Z,22.40
2022-08-04T20:55:55.480Z,22.61
2022-08-04T20:58:27.248Z,22.58
2022-08-04T21:04:14.311Z,22.43
2022-08-04T21:06:55.967Z,22.45
2022-08-04T21:09:38.142Z,22.64
2022-08-04T21:12:28.017Z,22.88
2022-08-04T21:15:01.410Z,22.91
2022-08-04T21:17:58.809Z,23.07
2022-08-04T21:20:31.367Z,23.12
2022-08-04T21:23:02.268Z,23.11
2022-08-04T21:25:42.887Z,23.40
2022-08-04T21:28:22.055Z,23.46
2022-08-04T21:30:55.959Z,23.49
2022-08-04T21:33:49.868Z,23.50
2022-08-04T21:36:16.121Z,23.76
2022-08-04T21:38:51.110Z,23.80
2022-08-04T21:41:24.878Z,23.92
2022-08-04T21:43:58.886Z,24.06
2022-08-04T21:46:30.250Z,24.02
2022-08-04T21:49:00.305Z,24.36
2022-08-04T21:52:00.189Z,24.62
2022-08-04T21:54:22.130Z,24.57
2022-08-04T21:56:53.785Z,24.51
2022-08-04T21:59:23.798Z,24.39
2022-08-04T22:04:49.596Z,24.76
2022-08-04T22:07:18.228Z,24.88
2022-08-04T22:10:02.783Z,24.93
2022-08-04T22:12:33.701Z,25.00
2022-08-04T22:15:22.934Z,25.23
2022-08-04T22:17:51.284Z,25.22
2022-08-04T22:20:27.612Z,25.40
2022-08-04T22:23:03.437Z,25.44
2022-08-04T22:25:44.946Z,25.59
2022-08-04T22:28:24.590Z,25.71
2022-08-04T22:30:56.959Z,25.66
2022-08-04T22:33:55.019Z,25.63
2022-08-04T22:36:15.827Z,25.75
2022-08-04T22:38:50.355Z,25.96
2022-08-04T22:41:33.680Z,26.00
2022-08-04T22:44:04.316Z,25.82
2022-08-04T22:46:32.908Z,26.08
2022-08-04T22:49:02.084Z,25.81
2022-08-04T22:51:30.636Z,26.15
2022-08-04T22:54:00.143Z,26.26
2022-08-04T22:56:38.406Z,26.33
2022-08-04T22:59:10.140Z,26.28
2022-08-04T23:01:59.284Z,26.30
2022-08-04T23:04:28.947Z,26.33
2022-08-04T23:06:57.475Z,26.45
2022-08-04T23:09:27.016Z,26.53
2022-08-04T23:12:30.454Z,26.53
2022-08-04T23:15:00.604Z,26.69
2022-08-04T23:17:32.943Z,26.79
2022-08-04T23:20:23.666Z,26.83
2022-08-04T23:23:14.924Z,26.84
2022-08-04T23:26:08.532Z,26.96
2022-08-04T23:28:34.740Z,26.93
2022-08-04T23:31:06.433Z,27.23
2022-08-04T23:33:49.088Z,27.17
2022-08-04T23:36:29.608Z,27.12
2022-08-04T23:39:01.263Z,27.07
2022-08-04T23:41:54.338Z,27.22
2022-08-04T23:44:24.900Z,26.95
2022-08-04T23:47:01.388Z,27.24
2022-08-04T23:49:42.238Z,27.25
2022-08-04T23:52:23.418Z,27.27
2022-08-04T23:54:59.009Z,27.19
2022-08-04T23:57:31.461Z,27.39
